Time;durP1;ratioP1;P1;durP2;ratioP2;P2;SDS_P1;SDS_P2;PMS_P1;PMS_P2;Temp;Humidity;BMP_temperature;BMP_pressure;BME280_temperature;BME280_humidity;BME280_pressure;Samples;Min_cycle;Max_cycle;Signal;HPM_P1;HPM_P2
2023/10/10 00:01:30;;;;;;;;;;;;;;;7.17;100.00;99387.90;271775;1272;23256;-84
2023/10/10 00:08:00;;;;;;;19.70;11.30;;;;;;;7.15;100.00;99389.16;273079;1269;22171;-83
2023/10/10 00:14:19;;;;;;;22.20;12.70;;;;;;;7.15;100.00;99393.22;272939;1272;23185;-83
2023/10/10 00:20:24;;;;;;;21.70;12.70;;;;;;;7.15;100.00;99387.45;270109;1263;22364;-83
2023/10/10 00:26:26;;;;;;;23.60;13.10;;;;;;;7.14;100.00;99384.86;271316;1272;22343;-83
2023/10/10 00:32:35;;;;;;;20.40;13.90;;;;;;;7.14;100.00;99385.48;272707;1270;23919;-83
2023/10/10 00:45:14;;;;;;;23.90;14.10;;;;;;;7.06;100.00;99375.75;272881;1270;22300;-83
2023/10/10 00:51:21;;;;;;;20.90;13.40;;;;;;;7.01;100.00;99362.98;272826;1270;22319;-83
2023/10/10 00:57:27;;;;;;;22.10;13.70;;;;;;;6.95;100.00;99362.03;272852;1270;22314;-82
2023/10/10 01:03:30;;;;;;;14.70;10.20;;;;;;;6.94;100.00;99362.21;271362;1270;23042;-83
2023/10/10 01:09:51;;;;;;;19.70;11.70;;;;;;;6.94;100.00;99362.08;269838;1270;22579;-83
2023/10/10 01:16:12;;;;;;;18.40;12.60;;;;;;;6.99;100.00;99363.62;269725;1271;22547;-84
2023/10/10 01:22:22;;;;;;;19.30;12.70;;;;;;;7.05;100.00;99367.17;272813;1272;22279;-84
2023/10/10 01:28:41;;;;;;;20.80;12.80;;;;;;;7.06;100.00;99374.27;271821;1270;22284;-83
2023/10/10 01:34:45;;;;;;;21.80;12.60;;;;;;;7.09;100.00;99372.89;271756;1270;22466;-83
2023/10/10 01:40:48;;;;;;;20.70;12.10;;;;;;;7.13;100.00;99374.29;272077;1272;23466;-85
2023/10/10 01:46:53;;;;;;;19.60;12.90;;;;;;;7.13;100.00;99379.00;272691;1264;23124;-83
2023/10/10 01:52:56;;;;;;;22.00;13.10;;;;;;;7.12;100.00;99377.87;272516;1270;22212;-83
2023/10/10 01:59:13;;;;;;;22.50;12.90;;;;;;;7.14;100.00;99374.25;273546;1270;22186;-83
2023/10/10 02:05:20;;;;;;;19.00;11.70;;;;;;;7.18;100.00;99372.37;272786;1270;22329;-84
2023/10/10 02:11:22;;;;;;;19.10;11.70;;;;;;;7.22;100.00;99377.48;272455;1271;23007;-84
2023/10/10 02:17:26;;;;;;;18.40;11.70;;;;;;;7.27;100.00;99382.38;272814;1272;22317;-83
2023/10/10 02:23:35;;;;;;;19.20;11.40;;;;;;;7.19;100.00;99368.77;272841;1272;23511;-83
2023/10/10 02:29:47;;;;;;;18.50;10.70;;;;;;;7.19;100.00;99372.63;272770;1272;22311;-83
2023/10/10 02:36:13;;;;;;;18.40;11.40;;;;;;;7.22;100.00;99374.04;272845;1272;22324;-83
2023/10/10 02:42:18;;;;;;;20.20;12.50;;;;;;;7.22;100.00;99368.38;273429;1273;22125;-83
2023/10/10 02:48:42;;;;;;;20.00;11.20;;;;;;;7.18;100.00;99373.23;273278;1278;23187;-83
2023/10/10 02:55:16;;;;;;;25.10;12.10;;;;;;;7.15;100.00;99377.27;272532;1272;24187;-84
2023/10/10 03:01:50;;;;;;;20.60;11.60;;;;;;;7.13;100.00;99381.33;271115;1270;22302;-83
2023/10/10 03:07:55;;;;;;;19.30;12.50;;;;;;;7.14;100.00;99387.09;272843;1272;22197;-83
2023/10/10 03:14:00;;;;;;;20.30;11.20;;;;;;;7.16;100.00;99391.39;272818;1265;23282;-83
2023/10/10 03:21:35;;;;;;;19.70;11.10;;;;;;;7.20;100.00;99396.85;272876;1270;22634;-83
2023/10/10 03:27:48;;;;;;;19.40;12.20;;;;;;;7.23;100.00;99398.13;272651;1272;22343;-83
2023/10/10 03:34:01;;;;;;;;;;;;;;;;;;;;;
2023/10/10 03:40:21;;;;;;;19.50;12.10;;;;;;;7.24;100.00;99394.96;272848;1272;24833;-83
2023/10/10 05:28:48;;;;;;;28.90;18.50;;;;;;;7.27;100.00;99431.71;270591;1272;22540;-83
2023/10/10 05:34:54;;;;;;;29.80;19.40;;;;;;;7.27;100.00;99438.16;270909;1260;22562;-83
2023/10/10 05:40:57;;;;;;;28.10;19.10;;;;;;;7.32;100.00;99443.76;270273;1272;23225;-83
2023/10/10 05:46:59;;;;;;;29.20;18.50;;;;;;;7.33;100.00;99442.30;270085;1272;23366;-83
2023/10/10 05:53:01;;;;;;;31.80;20.00;;;;;;;7.34;100.00;99443.12;273226;1272;22197;-83
2023/10/10 05:59:03;;;;;;;28.10;19.00;;;;;;;7.36;100.00;99447.23;272921;1272;22330;-84
2023/10/10 06:05:05;;;;;;;30.30;18.60;;;;;;;7.42;100.00;99451.30;272926;1259;22204;-84
2023/10/10 06:11:08;;;;;;;30.60;19.50;;;;;;;7.47;100.00;99448.75;272894;1272;22331;-84
2023/10/10 06:17:13;;;;;;;28.80;18.90;;;;;;;7.50;100.00;99439.24;273350;1272;22882;-83
2023/10/10 06:23:15;;;;;;;26.40;17.60;;;;;;;7.56;100.00;99438.20;272766;1272;22231;-84
2023/10/10 06:29:16;;;;;;;29.30;18.10;;;;;;;7.60;100.00;99440.19;272823;1270;22881;-83
2023/10/10 06:41:22;;;;;;;23.70;14.90;;;;;;;7.67;100.00;99454.31;271057;1271;22410;-83
2023/10/10 06:47:28;;;;;;;23.50;15.30;;;;;;;7.73;100.00;99458.55;272971;1271;23187;-82
2023/10/10 06:53:36;;;;;;;26.90;15.90;;;;;;;7.82;100.00;99456.70;272922;1272;22256;-83
2023/10/10 06:59:38;;;;;;;23.70;14.70;;;;;;;7.94;100.00;99459.58;272940;1262;22573;-83
2023/10/10 07:05:39;;;;;;;21.60;13.70;;;;;;;8.05;100.00;99461.83;272874;1271;22572;-82
2023/10/10 07:12:09;;;;;;;22.80;13.40;;;;;;;8.12;100.00;99468.17;272313;1270;22533;-82
2023/10/10 07:18:14;;;;;;;;;;;;;;;8.22;100.00;99468.39;270299;1271;22683;-83
2023/10/10 07:24:17;;;;;;;16.90;11.60;;;;;;;8.36;100.00;99464.20;272130;1271;22224;-82
2023/10/10 07:30:25;;;;;;;20.00;12.60;;;;;;;8.49;100.00;99464.23;272962;1262;22903;-83
2023/10/10 07:36:28;;;;;;;16.10;10.90;;;;;;;8.62;100.00;99464.80;272785;1259;23411;-83
2023/10/10 07:42:31;;;;;;;16.10;10.50;;;;;;;8.79;100.00;99468.13;272792;1270;23226;-82
2023/10/10 07:54:41;;;;;;;16.40;11.90;;;;;;;8.91;100.00;99478.44;269802;1262;22561;-82
2023/10/10 08:00:44;;;;;;;17.50;12.30;;;;;;;9.04;100.00;99485.07;269304;1265;22614;-83
2023/10/10 08:06:46;;;;;;;20.40;14.10;;;;;;;9.20;100.00;99480.01;269177;1271;22501;-82
2023/10/10 08:12:47;;;;;;;18.30;13.20;;;;;;;9.41;100.00;99478.32;271953;1271;22385;-83
2023/10/10 08:18:53;;;;;;;19.70;13.00;;;;;;;9.54;100.00;99482.92;272756;1271;22397;-82
2023/10/10 08:24:55;;;;;;;15.60;11.20;;;;;;;9.64;100.00;99484.08;272512;1272;22546;-82
2023/10/10 08:30:57;;;;;;;17.40;11.00;;;;;;;9.87;100.00;99482.09;269886;1272;22217;-82
2023/10/10 08:37:03;;;;;;;15.80;10.40;;;;;;;10.34;100.00;99479.34;269811;1272;22235;-83
2023/10/10 08:43:12;;;;;;;18.00;11.70;;;;;;;10.49;100.00;99486.77;272178;1265;22208;-83
2023/10/10 08:49:14;;;;;;;15.40;10.00;;;;;;;10.55;100.00;99496.97;270663;1272;22378;-82
2023/10/10 08:55:18;;;;;;;16.50;11.00;;;;;;;10.64;100.00;99498.70;272657;1272;23002;-85
2023/10/10 09:01:25;;;;;;;17.10;10.90;;;;;;;10.72;100.00;99506.52;269709;1269;23267;-82
2023/10/10 09:07:30;;;;;;;18.30;11.50;;;;;;;10.77;100.00;99513.09;270004;1269;22250;-83
2023/10/10 09:13:48;;;;;;;17.20;12.00;;;;;;;10.84;100.00;99519.34;272906;1270;22442;-82
2023/10/10 09:19:49;;;;;;;18.40;12.00;;;;;;;10.89;100.00;99516.77;272092;1272;23942;-82
2023/10/10 09:26:09;;;;;;;14.40;10.30;;;;;;;10.97;100.00;99515.81;270642;1270;22454;-84
2023/10/10 09:32:15;;;;;;;17.20;11.80;;;;;;;11.06;100.00;99513.78;271593;1271;23204;-81
2023/10/10 09:38:20;;;;;;;18.10;12.30;;;;;;;11.24;100.00;99507.33;272833;1272;22330;-82
2023/10/10 09:51:15;;;;;;;15.30;11.00;;;;;;;11.60;100.00;99512.64;273157;1264;23889;-84
2023/10/10 09:57:17;;;;;;;20.70;13.10;;;;;;;11.58;100.00;99507.75;272818;1270;22447;-82
2023/10/10 10:09:45;;;;;;;19.30;12.20;;;;;;;12.34;100.00;99500.89;272357;1272;22321;-82
2023/10/10 10:16:15;;;;;;;16.10;11.20;;;;;;;12.46;100.00;99498.11;272680;1271;22211;-82
2023/10/10 10:22:21;;;;;;;17.10;10.10;;;;;;;12.36;100.00;99495.89;272665;1270;22629;-82
2023/10/10 10:28:28;;;;;;;13.90;10.00;;;;;;;12.37;100.00;99492.54;270457;1272;22544;-82
2023/10/10 10:34:35;;;;;;;15.10;10.10;;;;;;;12.40;100.00;99498.05;270367;1270;23413;-82
2023/10/10 10:40:46;;;;;;;15.90;10.90;;;;;;;12.32;100.00;99501.34;272739;1271;22332;-82
2023/10/10 10:46:49;;;;;;;15.70;11.20;;;;;;;12.31;100.00;99496.52;272822;1271;23104;-82
2023/10/10 10:52:57;;;;;;;15.40;9.80;;;;;;;12.36;100.00;99494.77;273011;1272;22136;-83
2023/10/10 10:59:21;;;;;;;13.00;9.90;;;;;;;12.49;100.00;99492.19;272123;1271;22164;-82
2023/10/10 11:05:29;;;;;;;13.90;9.00;;;;;;;12.60;100.00;99490.28;273096;1269;23053;-82
2023/10/10 11:17:38;;;;;;;18.60;10.00;;;;;;;12.62;100.00;99477.75;271369;1271;22524;-82
2023/10/10 11:23:43;;;;;;;14.40;10.60;;;;;;;12.56;100.00;99471.95;271008;1271;22670;-83
2023/10/10 11:30:00;;;;;;;13.80;9.30;;;;;;;12.49;100.00;99468.42;270290;1271;22532;-83
2023/10/10 11:36:22;;;;;;;13.70;9.20;;;;;;;12.39;100.00;99473.65;269957;1255;24213;-83
2023/10/10 11:42:26;;;;;;;12.80;9.60;;;;;;;12.38;100.00;99475.19;269266;1264;22319;-83
2023/10/10 11:48:29;;;;;;;13.40;9.50;;;;;;;12.39;100.00;99472.31;272673;1272;23015;-82
2023/10/10 11:54:32;;;;;;;15.40;10.20;;;;;;;12.36;100.00;99474.23;272939;1272;22317;-83
2023/10/10 12:00:43;;;;;;;15.30;9.80;;;;;;;12.36;100.00;99467.50;272904;1272;22410;-81
2023/10/10 12:06:47;;;;;;;14.00;9.40;;;;;;;12.36;100.00;99464.59;271444;1272;22845;-85
2023/10/10 12:12:53;;;;;;;12.30;9.50;;;;;;;12.33;100.00;99461.42;271800;1272;22200;-83
2023/10/10 12:18:55;;;;;;;13.80;8.90;;;;;;;12.31;100.00;99460.54;272572;1270;22144;-83
2023/10/10 12:24:59;;;;;;;12.50;8.50;;;;;;;12.30;100.00;99460.20;272534;1272;22195;-83
2023/10/10 12:31:03;;;;;;;14.80;9.50;;;;;;;12.29;100.00;99457.92;272525;1272;23105;-82
2023/10/10 12:37:05;;;;;;;14.50;9.00;;;;;;;12.34;100.00;99455.63;272499;1272;23771;-83
2023/10/10 12:43:11;;;;;;;12.50;8.80;;;;;;;12.42;100.00;99451.55;272589;1271;22331;-83
2023/10/10 12:49:13;;;;;;;13.90;8.90;;;;;;;12.52;100.00;99454.26;270738;1272;22583;-83
2023/10/10 12:55:16;;;;;;;11.20;8.00;;;;;;;12.50;100.00;99454.00;269396;1272;25270;-82
2023/10/10 13:01:23;;;;;;;13.70;9.70;;;;;;;12.48;100.00;99451.70;269293;1272;22535;-83
2023/10/10 13:07:27;;;;;;;14.00;8.80;;;;;;;12.49;100.00;99445.73;271777;1272;22142;-83
2023/10/10 13:13:45;;;;;;;10.50;7.50;;;;;;;12.44;100.00;99449.45;272688;1272;22159;-82
2023/10/10 13:19:46;;;;;;;14.10;7.40;;;;;;;12.48;100.00;99449.90;271896;1272;22626;-82
2023/10/10 13:25:48;;;;;;;11.00;7.80;;;;;;;12.54;100.00;99456.08;270665;1272;23777;-83
2023/10/10 13:31:50;;;;;;;14.40;7.80;;;;;;;12.53;100.00;99447.83;271203;1272;23093;-83
2023/10/10 13:37:52;;;;;;;11.80;7.90;;;;;;;12.50;100.00;99448.59;272803;1270;22347;-82
2023/10/10 13:43:59;;;;;;;14.20;8.20;;;;;;;12.53;100.00;99450.27;272765;1272;23095;-83
2023/10/10 13:50:28;;;;;;;13.10;8.40;;;;;;;12.56;100.00;99442.45;271555;1272;22562;-82
2023/10/10 13:56:23;;;;;;;14.40;8.00;;;;;;;12.59;100.00;99437.93;270377;1272;22632;-82
2023/10/10 14:02:25;;;;;;;11.70;8.80;;;;;;;12.62;100.00;99437.17;271490;1272;22556;-83
2023/10/10 14:08:30;;;;;;;12.70;8.70;;;;;;;12.66;100.00;99429.60;269906;1272;22972;-83
2023/10/10 14:14:33;;;;;;;14.20;10.00;;;;;;;12.68;100.00;99418.40;271530;1272;22234;-83
2023/10/10 14:20:38;;;;;;;12.20;8.60;;;;;;;12.67;100.00;99421.68;272627;1272;22204;-82
2023/10/10 14:26:43;;;;;;;12.70;8.80;;;;;;;12.71;100.00;99430.59;272796;1272;22199;-82
2023/10/10 14:32:45;;;;;;;11.40;8.30;;;;;;;12.71;100.00;99436.79;272577;1272;22195;-83
2023/10/10 14:38:50;;;;;;;14.20;7.30;;;;;;;12.76;100.00;99434.88;272530;1272;22332;-83
2023/10/10 14:44:53;;;;;;;13.90;8.40;;;;;;;12.75;100.00;99431.49;272772;1273;22552;-82
2023/10/10 14:50:57;;;;;;;12.60;7.00;;;;;;;12.75;100.00;99443.89;272574;1272;23014;-83
2023/10/10 14:57:02;;;;;;;12.60;8.00;;;;;;;12.74;100.00;99449.23;271881;1271;23520;-82
2023/10/10 15:03:08;;;;;;;10.90;7.60;;;;;;;12.72;100.00;99451.95;272598;1272;22197;-83
2023/10/10 15:09:14;;;;;;;13.90;7.70;;;;;;;12.65;100.00;99451.95;271559;1270;23024;-83
2023/10/10 15:15:16;;;;;;;14.00;9.20;;;;;;;12.58;100.00;99445.06;272596;1270;22295;-82
2023/10/10 15:21:21;;;;;;;14.90;9.10;;;;;;;12.53;100.00;99438.49;273029;1272;22285;-83
2023/10/10 15:27:23;;;;;;;13.60;8.40;;;;;;;12.50;100.00;99444.27;272522;1265;23393;-82
2023/10/10 15:33:25;;;;;;;15.80;8.60;;;;;;;12.48;100.00;99449.27;272556;1270;23337;-82
2023/10/10 15:39:27;;;;;;;16.50;9.30;;;;;;;12.44;100.00;99444.36;272726;1272;22241;-82
2023/10/10 15:45:37;;;;;;;14.30;8.40;;;;;;;12.40;100.00;99445.18;273182;1267;22208;-82
2023/10/10 15:51:39;;;;;;;12.90;8.00;;;;;;;12.36;100.00;99449.45;271366;1270;1805653;-83
2023/10/10 15:57:41;;;;;;;10.50;7.70;;;;;;;12.27;100.00;99463.78;272653;1272;23164;-82
2023/10/10 16:03:47;;;;;;;11.80;8.40;;;;;;;12.20;100.00;99473.81;271980;1270;22282;-84
2023/10/10 16:09:52;;;;;;;16.40;9.40;;;;;;;12.17;100.00;99474.73;270439;1264;24247;-83
2023/10/10 16:15:56;;;;;;;18.10;9.30;;;;;;;12.11;100.00;99477.09;272542;1272;22357;-82
2023/10/10 16:22:01;;;;;;;15.30;9.30;;;;;;;11.99;100.00;99483.59;271810;1270;23201;-83
2023/10/10 16:28:05;;;;;;;15.30;8.90;;;;;;;11.85;100.00;99488.09;269668;1270;22573;-81
2023/10/10 16:34:11;;;;;;;15.30;8.60;;;;;;;11.70;100.00;99489.13;270432;1260;24074;-85
2023/10/10 16:40:17;;;;;;;13.30;8.10;;;;;;;11.52;100.00;99488.60;263606;1272;10002679;-83
2023/10/10 16:46:19;;;;;;;17.60;10.10;;;;;;;11.40;100.00;99490.09;272002;1270;22211;-83
2023/10/10 16:52:25;;;;;;;21.60;12.80;;;;;;;11.30;100.00;99490.91;272759;1272;23255;-84
2023/10/10 16:58:28;;;;;;;27.00;16.20;;;;;;;11.18;100.00;99476.94;272896;1272;22092;-83
2023/10/10 17:04:33;;;;;;;20.00;12.90;;;;;;;11.14;100.00;99483.45;272605;1271;22369;-83
2023/10/10 17:10:35;;;;;;;21.20;14.80;;;;;;;11.09;100.00;99485.58;272669;1271;22831;-83
2023/10/10 17:16:39;;;;;;;20.60;12.40;;;;;;;11.08;100.00;99486.58;272640;1272;22531;-83
2023/10/10 17:22:46;;;;;;;27.60;15.70;;;;;;;11.01;100.00;99489.74;272053;1270;23714;-83
2023/10/10 17:28:49;;;;;;;23.40;14.80;;;;;;;11.00;100.00;99483.54;272727;1271;23673;-83
2023/10/10 17:34:52;;;;;;;27.90;16.60;;;;;;;11.02;100.00;99476.69;272715;1272;22329;-83
2023/10/10 17:41:00;;;;;;;22.80;14.00;;;;;;;10.99;100.00;99486.65;272763;1272;22325;-83
2023/10/10 17:47:02;;;;;;;20.50;12.40;;;;;;;10.97;100.00;99488.42;272552;1270;22212;-84
2023/10/10 17:53:11;;;;;;;22.80;13.00;;;;;;;11.01;100.00;99493.41;272696;1270;22323;-83
2023/10/10 17:59:19;;;;;;;18.50;12.00;;;;;;;11.04;100.00;99499.97;272630;1272;22425;-84
2023/10/10 18:05:22;;;;;;;19.00;11.00;;;;;;;11.02;100.00;99506.50;272711;1271;22564;-82
2023/10/10 18:11:40;;;;;;;19.30;11.20;;;;;;;11.00;100.00;99518.30;273141;1270;22346;-84
2023/10/10 18:18:03;;;;;;;23.20;13.10;;;;;;;11.01;100.00;99515.34;272469;1270;23531;-83
2023/10/10 18:24:05;;;;;;;16.20;9.60;;;;;;;11.00;100.00;99510.47;272744;1271;22230;-84
2023/10/10 18:30:08;;;;;;;16.40;10.10;;;;;;;10.97;100.00;99517.06;272655;1270;22246;-83
2023/10/10 18:36:10;;;;;;;19.30;10.60;;;;;;;10.92;100.00;99516.66;272490;1271;24847;-83
2023/10/10 18:42:15;;;;;;;15.50;10.60;;;;;;;10.87;100.00;99513.45;273106;1269;22173;-83
2023/10/10 18:48:19;;;;;;;17.20;9.80;;;;;;;10.85;100.00;99510.50;272720;1272;22220;-83
2023/10/10 18:54:20;;;;;;;21.50;12.20;;;;;;;10.80;100.00;99511.52;272828;1270;22512;-83
2023/10/10 19:00:26;;;;;;;20.40;12.00;;;;;;;10.79;100.00;99510.56;272567;1270;22208;-83
2023/10/10 19:06:28;;;;;;;25.80;12.70;;;;;;;10.79;100.00;99499.52;272695;1270;22318;-83
2023/10/10 19:12:30;;;;;;;18.90;10.90;;;;;;;10.77;100.00;99502.69;272574;1270;22307;-83
2023/10/10 19:18:34;;;;;;;16.80;9.70;;;;;;;10.78;100.00;99503.19;272785;1270;22211;-84
2023/10/10 19:24:51;;;;;;;18.70;10.70;;;;;;;10.78;100.00;99494.48;272847;1270;23132;-83
2023/10/10 19:30:52;;;;;;;17.60;11.30;;;;;;;10.74;100.00;99495.20;272749;1268;23786;-84
2023/10/10 19:36:56;;;;;;;19.30;12.00;;;;;;;10.75;100.00;99493.02;272656;1267;23524;-84
2023/10/10 19:42:59;;;;;;;17.80;10.30;;;;;;;10.75;100.00;99488.02;273332;1272;22184;-83
2023/10/10 19:49:04;;;;;;;21.40;13.20;;;;;;;10.72;100.00;99489.93;271963;1264;22594;-85
2023/10/10 19:55:16;;;;;;;23.20;13.50;;;;;;;10.69;100.00;99490.10;271615;1264;22316;-82
2023/10/10 20:01:20;;;;;;;18.90;12.20;;;;;;;10.70;100.00;99494.43;271772;1271;22671;-82
2023/10/10 20:07:22;;;;;;;28.20;12.90;;;;;;;10.75;100.00;99499.14;269631;1271;22234;-82
2023/10/10 20:13:23;;;;;;;30.50;15.80;;;;;;;10.76;100.00;99502.13;270634;1270;22528;-83
2023/10/10 20:19:29;;;;;;;27.10;17.10;;;;;;;10.73;100.00;99497.53;271269;1270;23507;-83
2023/10/10 20:25:52;;;;;;;28.50;16.20;;;;;;;10.66;100.00;99497.39;272746;1269;22331;-83
2023/10/10 20:31:56;;;;;;;24.30;14.10;;;;;;;10.60;100.00;99494.95;272684;1270;22189;-83
2023/10/10 20:38:05;;;;;;;26.10;13.30;;;;;;;10.55;100.00;99500.94;271713;1269;22564;-83
2023/10/10 20:44:09;;;;;;;24.60;14.80;;;;;;;10.48;100.00;99499.56;270084;1267;22530;-84
2023/10/10 20:50:16;;;;;;;26.50;14.20;;;;;;;10.35;100.00;99492.34;270689;1270;22541;-83
2023/10/10 20:56:18;;;;;;;27.30;15.30;;;;;;;10.27;100.00;99498.11;270061;1270;22503;-82
2023/10/10 21:02:20;;;;;;;26.70;16.30;;;;;;;10.16;100.00;99498.06;271991;1267;22194;-82
2023/10/10 21:08:22;;;;;;;29.70;16.90;;;;;;;10.09;100.00;99494.08;272908;1270;22632;-83
2023/10/10 21:14:24;;;;;;;33.70;18.60;;;;;;;10.08;100.00;99493.20;272752;1266;22337;-82
2023/10/10 21:20:30;;;;;;;28.90;19.90;;;;;;;10.07;100.00;99491.67;270311;1262;22636;-82
2023/10/10 21:26:32;;;;;;;26.30;18.00;;;;;;;10.01;100.00;99490.12;270471;1270;22557;-83
2023/10/10 21:32:34;;;;;;;41.50;19.20;;;;;;;9.98;100.00;99487.33;269665;1271;23168;-82
2023/10/10 21:38:37;;;;;;;37.90;21.70;;;;;;;9.99;100.00;99487.05;270781;1272;22326;-82
2023/10/10 21:44:40;;;;;;;32.40;21.00;;;;;;;9.99;100.00;99480.55;272894;1270;22220;-84
2023/10/10 21:50:43;;;;;;;31.40;20.10;;;;;;;10.02;100.00;99476.70;272536;1272;22318;-84
2023/10/10 21:56:45;;;;;;;32.40;19.20;;;;;;;10.00;100.00;99468.30;272713;1272;22269;-83
2023/10/10 22:02:49;;;;;;;30.60;18.20;;;;;;;9.94;100.00;99458.73;272662;1264;22183;-83
2023/10/10 22:09:06;;;;;;;30.40;19.40;;;;;;;9.94;100.00;99459.58;273398;1272;22860;-83
2023/10/10 22:15:09;;;;;;;31.80;19.30;;;;;;;9.97;100.00;99460.35;272559;1271;22521;-82
2023/10/10 22:21:26;;;;;;;34.50;19.70;;;;;;;9.96;100.00;99459.77;272738;1271;22179;-83
2023/10/10 22:27:28;;;;;;;29.20;17.60;;;;;;;9.89;100.00;99461.34;272881;1264;22198;-83
2023/10/10 22:33:34;;;;;;;31.30;18.90;;;;;;;9.83;100.00;99460.92;272201;1272;23038;-82
2023/10/10 22:39:36;;;;;;;33.90;19.10;;;;;;;9.76;100.00;99456.15;272539;1271;22205;-84
2023/10/10 22:45:38;;;;;;;29.90;19.60;;;;;;;9.68;100.00;99447.53;272469;1271;22273;-82
2023/10/10 22:51:40;;;;;;;31.10;19.60;;;;;;;9.58;100.00;99443.19;273150;1271;22209;-82
2023/10/10 22:57:42;;;;;;;28.40;18.30;;;;;;;9.51;100.00;99431.02;272646;1272;22204;-82
2023/10/10 23:03:47;;;;;;;26.50;16.80;;;;;;;9.44;100.00;99425.15;272677;1271;22313;-82
2023/10/10 23:09:49;;;;;;;28.80;18.50;;;;;;;9.33;100.00;99428.50;272636;1271;23273;-82
2023/10/10 23:15:54;;;;;;;30.80;18.60;;;;;;;9.28;100.00;99421.44;273338;1271;23026;-82
2023/10/10 23:21:57;;;;;;;27.10;17.20;;;;;;;9.26;100.00;99415.94;272646;1263;22204;-82
2023/10/10 23:27:59;;;;;;;25.90;15.90;;;;;;;9.26;100.00;99407.57;272691;1272;22221;-82
2023/10/10 23:34:04;;;;;;;24.20;15.10;;;;;;;9.23;100.00;99404.38;272958;1270;22310;-83
2023/10/10 23:40:15;;;;;;;22.60;14.20;;;;;;;9.19;100.00;99409.74;272905;1270;23159;-83
2023/10/10 23:46:21;;;;;;;30.50;14.50;;;;;;;9.14;100.00;99410.34;272743;1271;22552;-82
2023/10/10 23:52:24;;;;;;;22.20;14.30;;;;;;;9.09;100.00;99413.88;270081;1256;22842;-82
2023/10/10 23:58:26;;;;;;;21.70;13.20;;;;;;;9.10;100.00;99409.77;269575;1269;22664;-83
